sensor_id;sensor_type;location;lat;lon;timestamp;pressure;altitude;pressure_sealevel;temperature;humidity
706;BME280;21234;48.690;9.016;2023-08-06T00:00:52;95426.16;;;14.70;95.02
706;BME280;21234;48.690;9.016;2023-08-06T00:03:19;95415.50;;;14.69;94.83
706;BME280;21234;48.690;9.016;2023-08-06T00:05:46;95424.31;;;14.66;94.37
706;BME280;21234;48.690;9.016;2023-08-06T00:08:12;95408.88;;;14.56;95.15
706;BME280;21234;48.690;9.016;2023-08-06T00:10:40;95407.19;;;14.60;93.79
706;BME280;21234;48.690;9.016;2023-08-06T00:13:07;95403.53;;;14.65;95.86
706;BME280;21234;48.690;9.016;2023-08-06T00:15:34;95408.94;;;14.70;94.95
706;BME280;21234;48.690;9.016;2023-08-06T00:18:00;95415.38;;;14.60;94.04
706;BME280;21234;48.690;9.016;2023-08-06T00:20:27;95412.13;;;14.58;95.98
706;BME280;21234;48.690;9.016;2023-08-06T00:22:54;95417.00;;;14.61;95.32
706;BME280;21234;48.690;9.016;2023-08-06T00:25:20;95418.59;;;14.62;94.13
706;BME280;21234;48.690;9.016;2023-08-06T00:27:48;95412.84;;;14.64;94.36
706;BME280;21234;48.690;9.016;2023-08-06T00:30:15;95411.53;;;14.61;94.08
706;BME280;21234;48.690;9.016;2023-08-06T00:32:42;95420.56;;;14.62;94.98
706;BME280;21234;48.690;9.016;2023-08-06T00:35:09;95408.28;;;14.59;95.54
706;BME280;21234;48.690;9.016;2023-08-06T00:37:36;95411.59;;;14.56;97.17
706;BME280;21234;48.690;9.016;2023-08-06T00:40:03;95400.97;;;14.55;95.67
706;BME280;21234;48.690;9.016;2023-08-06T00:42:29;95394.69;;;14.54;94.94
706;BME280;21234;48.690;9.016;2023-08-06T00:44:57;95396.59;;;14.54;96.22
706;BME280;21234;48.690;9.016;2023-08-06T00:47:24;95385.44;;;14.50;97.09
706;BME280;21234;48.690;9.016;2023-08-06T00:49:51;95377.00;;;14.47;96.17
706;BME280;21234;48.690;9.016;2023-08-06T00:52:18;95378.94;;;14.46;96.02
706;BME280;21234;48.690;9.016;2023-08-06T00:54:45;95370.72;;;14.46;96.27
706;BME280;21234;48.690;9.016;2023-08-06T00:57:12;95365.03;;;14.42;97.12
706;BME280;21234;48.690;9.016;2023-08-06T00:59:38;95366.41;;;14.40;95.99
706;BME280;21234;48.690;9.016;2023-08-06T01:02:07;95365.59;;;14.39;96.74
706;BME280;21234;48.690;9.016;2023-08-06T01:04:33;95363.75;;;14.35;96.30
706;BME280;21234;48.690;9.016;2023-08-06T01:07:06;95366.53;;;14.30;96.09
706;BME280;21234;48.690;9.016;2023-08-06T01:09:45;95363.91;;;14.25;97.37
706;BME280;21234;48.690;9.016;2023-08-06T01:12:24;95373.00;;;14.20;97.76
706;BME280;21234;48.690;9.016;2023-08-06T01:14:59;95371.06;;;14.21;98.61
706;BME280;21234;48.690;9.016;2023-08-06T01:17:29;95373.56;;;14.17;99.11
706;BME280;21234;48.690;9.016;2023-08-06T01:19:57;95370.31;;;14.15;99.89
706;BME280;21234;48.690;9.016;2023-08-06T01:22:25;95359.53;;;14.05;99.48
706;BME280;21234;48.690;9.016;2023-08-06T01:24:53;95358.19;;;14.02;100.00
706;BME280;21234;48.690;9.016;2023-08-06T01:27:25;95357.38;;;14.02;100.00
706;BME280;21234;48.690;9.016;2023-08-06T01:29:57;95355.75;;;14.01;99.25
706;BME280;21234;48.690;9.016;2023-08-06T01:32:29;95364.75;;;14.01;98.71
706;BME280;21234;48.690;9.016;2023-08-06T01:34:59;95366.44;;;13.97;97.42
706;BME280;21234;48.690;9.016;2023-08-06T01:37:28;95355.84;;;13.96;97.70
706;BME280;21234;48.690;9.016;2023-08-06T01:39:55;95354.41;;;13.98;96.90
706;BME280;21234;48.690;9.016;2023-08-06T01:42:21;95353.94;;;13.96;96.56
706;BME280;21234;48.690;9.016;2023-08-06T01:44:48;95363.28;;;13.90;97.69
706;BME280;21234;48.690;9.016;2023-08-06T01:47:15;95356.50;;;13.88;98.08
706;BME280;21234;48.690;9.016;2023-08-06T01:49:41;95353.47;;;13.89;97.55
706;BME280;21234;48.690;9.016;2023-08-06T01:52:08;95358.13;;;13.89;97.10
706;BME280;21234;48.690;9.016;2023-08-06T01:54:36;95350.22;;;13.87;96.25
706;BME280;21234;48.690;9.016;2023-08-06T01:57:03;95347.25;;;13.84;96.47
706;BME280;21234;48.690;9.016;2023-08-06T01:59:30;95345.91;;;13.81;96.35
706;BME280;21234;48.690;9.016;2023-08-06T02:01:57;95340.56;;;13.71;97.88
706;BME280;21234;48.690;9.016;2023-08-06T02:04:23;95334.00;;;13.72;98.48
706;BME280;21234;48.690;9.016;2023-08-06T02:06:50;95330.22;;;13.68;98.22
706;BME280;21234;48.690;9.016;2023-08-06T02:09:17;95326.47;;;13.64;98.61
706;BME280;21234;48.690;9.016;2023-08-06T02:11:45;95319.22;;;13.54;99.05
706;BME280;21234;48.690;9.016;2023-08-06T02:14:11;95325.03;;;13.48;100.00
706;BME280;21234;48.690;9.016;2023-08-06T02:16:38;95312.75;;;13.45;100.00
706;BME280;21234;48.690;9.016;2023-08-06T02:19:05;95316.94;;;13.37;100.00
706;BME280;21234;48.690;9.016;2023-08-06T02:21:31;95311.25;;;13.34;100.00
706;BME280;21234;48.690;9.016;2023-08-06T02:23:58;95309.19;;;13.26;100.00
706;BME280;21234;48.690;9.016;2023-08-06T02:26:25;95302.16;;;13.20;100.00
706;BME280;21234;48.690;9.016;2023-08-06T02:28:53;95296.97;;;13.18;100.00
706;BME280;21234;48.690;9.016;2023-08-06T02:31:20;95293.72;;;13.16;100.00
706;BME280;21234;48.690;9.016;2023-08-06T02:33:46;95300.84;;;13.12;100.00
706;BME280;21234;48.690;9.016;2023-08-06T02:36:13;95285.56;;;13.11;100.00
706;BME280;21234;48.690;9.016;2023-08-06T02:38:40;95298.09;;;13.12;100.00
706;BME280;21234;48.690;9.016;2023-08-06T02:41:06;95288.56;;;13.09;100.00
706;BME280;21234;48.690;9.016;2023-08-06T02:43:33;95279.81;;;13.12;100.00
706;BME280;21234;48.690;9.016;2023-08-06T02:46:01;95277.91;;;13.13;100.00
706;BME280;21234;48.690;9.016;2023-08-06T02:48:28;95275.69;;;13.15;100.00
706;BME280;21234;48.690;9.016;2023-08-06T02:50:57;95273.25;;;13.13;100.00
706;BME280;21234;48.690;9.016;2023-08-06T02:53:24;95271.09;;;13.10;100.00
706;BME280;21234;48.690;9.016;2023-08-06T02:55:51;95265.34;;;13.12;100.00
706;BME280;21234;48.690;9.016;2023-08-06T02:58:17;95264.75;;;13.20;100.00
706;BME280;21234;48.690;9.016;2023-08-06T03:00:58;95254.38;;;13.22;100.00
706;BME280;21234;48.690;9.016;2023-08-06T03:03:27;95261.09;;;13.30;100.00
706;BME280;21234;48.690;9.016;2023-08-06T03:05:53;95256.03;;;13.42;100.00
706;BME280;21234;48.690;9.016;2023-08-06T03:08:20;95255.66;;;13.49;99.40
706;BME280;21234;48.690;9.016;2023-08-06T03:10:48;95249.84;;;13.55;98.49
706;BME280;21234;48.690;9.016;2023-08-06T03:13:14;95252.81;;;13.59;98.90
706;BME280;21234;48.690;9.016;2023-08-06T03:15:41;95248.69;;;13.61;97.46
706;BME280;21234;48.690;9.016;2023-08-06T03:18:08;95239.59;;;13.66;98.19
706;BME280;21234;48.690;9.016;2023-08-06T03:20:36;95245.03;;;13.66;97.40
706;BME280;21234;48.690;9.016;2023-08-06T03:23:02;95246.16;;;13.65;97.80
706;BME280;21234;48.690;9.016;2023-08-06T03:25:29;95250.31;;;13.62;97.32
706;BME280;21234;48.690;9.016;2023-08-06T03:27:56;95236.03;;;13.65;99.38
706;BME280;21234;48.690;9.016;2023-08-06T03:30:22;95243.13;;;13.66;97.78
706;BME280;21234;48.690;9.016;2023-08-06T03:32:49;95249.63;;;13.70;98.32
706;BME280;21234;48.690;9.016;2023-08-06T03:35:16;95254.56;;;13.68;97.61
706;BME280;21234;48.690;9.016;2023-08-06T03:37:44;95252.41;;;13.65;97.14
706;BME280;21234;48.690;9.016;2023-08-06T03:40:10;95252.41;;;13.65;98.04
706;BME280;21234;48.690;9.016;2023-08-06T03:42:37;95252.13;;;13.67;97.87
706;BME280;21234;48.690;9.016;2023-08-06T03:45:05;95246.38;;;13.68;97.98
706;BME280;21234;48.690;9.016;2023-08-06T03:47:32;95249.78;;;13.60;98.36
706;BME280;21234;48.690;9.016;2023-08-06T03:49:58;95239.22;;;13.54;98.43
706;BME280;21234;48.690;9.016;2023-08-06T03:52:25;95251.84;;;13.50;98.67
706;BME280;21234;48.690;9.016;2023-08-06T03:54:53;95257.22;;;13.55;99.52
706;BME280;21234;48.690;9.016;2023-08-06T03:57:20;95246.38;;;13.50;98.89
706;BME280;21234;48.690;9.016;2023-08-06T03:59:46;95238.75;;;13.47;99.29
706;BME280;21234;48.690;9.016;2023-08-06T04:02:13;95238.47;;;13.48;100.00
706;BME280;21234;48.690;9.016;2023-08-06T04:04:40;95232.72;;;13.50;100.00
706;BME280;21234;48.690;9.016;2023-08-06T04:07:06;95245.84;;;13.48;100.00
706;BME280;21234;48.690;9.016;2023-08-06T04:09:33;95253.16;;;13.52;100.00
706;BME280;21234;48.690;9.016;2023-08-06T04:12:04;95252.59;;;13.55;100.00
706;BME280;21234;48.690;9.016;2023-08-06T04:14:30;95263.50;;;13.55;100.00
706;BME280;21234;48.690;9.016;2023-08-06T04:16:57;95259.09;;;13.59;100.00
706;BME280;21234;48.690;9.016;2023-08-06T04:19:24;95256.66;;;13.58;100.00
706;BME280;21234;48.690;9.016;2023-08-06T04:21:50;95263.16;;;13.62;100.00
706;BME280;21234;48.690;9.016;2023-08-06T04:24:17;95260.47;;;13.57;100.00
706;BME280;21234;48.690;9.016;2023-08-06T04:26:44;95262.41;;;13.56;100.00
706;BME280;21234;48.690;9.016;2023-08-06T04:29:12;95252.22;;;13.62;100.00
706;BME280;21234;48.690;9.016;2023-08-06T04:31:38;95261.53;;;13.61;100.00
706;BME280;21234;48.690;9.016;2023-08-06T04:34:05;95261.53;;;13.61;100.00
706;BME280;21234;48.690;9.016;2023-08-06T04:36:33;95266.16;;;13.60;100.00
706;BME280;21234;48.690;9.016;2023-08-06T04:39:00;95264.47;;;13.64;100.00
706;BME280;21234;48.690;9.016;2023-08-06T04:41:26;95266.88;;;13.66;100.00
706;BME280;21234;48.690;9.016;2023-08-06T04:43:53;95257.06;;;13.65;100.00
706;BME280;21234;48.690;9.016;2023-08-06T04:46:21;95261.00;;;13.59;100.00
706;BME280;21234;48.690;9.016;2023-08-06T04:48:48;95261.81;;;13.59;100.00
706;BME280;21234;48.690;9.016;2023-08-06T04:51:14;95270.25;;;13.63;100.00
706;BME280;21234;48.690;9.016;2023-08-06T04:53:41;95265.88;;;13.62;100.00
706;BME280;21234;48.690;9.016;2023-08-06T04:56:08;95267.22;;;13.64;100.00
706;BME280;21234;48.690;9.016;2023-08-06T04:58:35;95278.34;;;13.68;100.00
706;BME280;21234;48.690;9.016;2023-08-06T05:01:01;95272.88;;;13.68;100.00
706;BME280;21234;48.690;9.016;2023-08-06T05:03:29;95264.09;;;13.71;100.00
706;BME280;21234;48.690;9.016;2023-08-06T05:05:56;95257.06;;;13.65;100.00
706;BME280;21234;48.690;9.016;2023-08-06T05:08:23;95263.00;;;13.72;100.00
706;BME280;21234;48.690;9.016;2023-08-06T05:10:49;95262.69;;;13.73;100.00
706;BME280;21234;48.690;9.016;2023-08-06T05:13:16;95264.09;;;13.71;100.00
706;BME280;21234;48.690;9.016;2023-08-06T05:15:42;95258.50;;;13.62;100.00
706;BME280;21234;48.690;9.016;2023-08-06T05:18:11;95261.88;;;13.73;100.00
706;BME280;21234;48.690;9.016;2023-08-06T05:20:40;95262.28;;;13.85;100.00
706;BME280;21234;48.690;9.016;2023-08-06T05:23:07;95267.78;;;13.99;99.87
706;BME280;21234;48.690;9.016;2023-08-06T05:25:34;95265.06;;;14.18;99.17
706;BME280;21234;48.690;9.016;2023-08-06T05:28:01;95265.50;;;14.25;98.84
706;BME280;21234;48.690;9.016;2023-08-06T05:30:28;95264.81;;;14.33;99.73
706;BME280;21234;48.690;9.016;2023-08-06T05:32:55;95269.97;;;14.34;98.01
706;BME280;21234;48.690;9.016;2023-08-06T05:35:22;95269.75;;;14.31;97.81
706;BME280;21234;48.690;9.016;2023-08-06T05:37:51;95278.59;;;14.28;96.90
706;BME280;21234;48.690;9.016;2023-08-06T05:40:17;95278.06;;;14.26;97.33
706;BME280;21234;48.690;9.016;2023-08-06T05:42:44;95293.72;;;14.20;97.43
706;BME280;21234;48.690;9.016;2023-08-06T05:45:11;95290.84;;;14.11;97.38
706;BME280;21234;48.690;9.016;2023-08-06T05:47:37;95286.31;;;14.02;97.21
706;BME280;21234;48.690;9.016;2023-08-06T05:50:05;95295.63;;;14.01;98.82
706;BME280;21234;48.690;9.016;2023-08-06T05:52:32;95288.03;;;13.98;99.38
706;BME280;21234;48.690;9.016;2023-08-06T05:55:00;95294.09;;;13.95;98.49
706;BME280;21234;48.690;9.016;2023-08-06T05:57:27;95290.03;;;13.92;99.12
706;BME280;21234;48.690;9.016;2023-08-06T05:59:54;95292.25;;;13.90;98.51
706;BME280;21234;48.690;9.016;2023-08-06T06:02:20;95297.13;;;13.93;99.68
706;BME280;21234;48.690;9.016;2023-08-06T06:04:47;95287.31;;;13.92;98.49
706;BME280;21234;48.690;9.016;2023-08-06T06:07:14;95285.91;;;13.95;100.00
706;BME280;21234;48.690;9.016;2023-08-06T06:09:41;95280.16;;;13.96;100.00
706;BME280;21234;48.690;9.016;2023-08-06T06:12:10;95288.13;;;13.93;100.00
706;BME280;21234;48.690;9.016;2023-08-06T06:14:37;95300.88;;;13.97;100.00
706;BME280;21234;48.690;9.016;2023-08-06T06:17:03;95287.53;;;13.96;100.00
706;BME280;21234;48.690;9.016;2023-08-06T06:19:30;95298.31;;;13.87;100.00
706;BME280;21234;48.690;9.016;2023-08-06T06:21:57;95298.88;;;13.84;100.00
706;BME280;21234;48.690;9.016;2023-08-06T06:24:24;95305.16;;;13.85;100.00
706;BME280;21234;48.690;9.016;2023-08-06T06:26:50;95309.53;;;13.86;100.00
706;BME280;21234;48.690;9.016;2023-08-06T06:29:18;95316.84;;;13.90;100.00
706;BME280;21234;48.690;9.016;2023-08-06T06:31:45;95319.34;;;13.87;100.00
706;BME280;21234;48.690;9.016;2023-08-06T06:34:12;95314.47;;;13.84;100.00
706;BME280;21234;48.690;9.016;2023-08-06T06:36:38;95321.56;;;13.85;100.00
706;BME280;21234;48.690;9.016;2023-08-06T06:39:05;95325.56;;;13.92;100.00
706;BME280;21234;48.690;9.016;2023-08-06T06:41:33;95317.78;;;13.99;100.00
706;BME280;21234;48.690;9.016;2023-08-06T06:44:00;95319.22;;;13.97;100.00
706;BME280;21234;48.690;9.016;2023-08-06T06:46:29;95326.78;;;14.00;100.00
706;BME280;21234;48.690;9.016;2023-08-06T06:48:55;95330.16;;;13.97;100.00
706;BME280;21234;48.690;9.016;2023-08-06T06:51:22;95323.88;;;13.96;100.00
706;BME280;21234;48.690;9.016;2023-08-06T06:53:49;95325.84;;;13.91;100.00
706;BME280;21234;48.690;9.016;2023-08-06T06:56:15;95324.59;;;13.83;100.00
706;BME280;21234;48.690;9.016;2023-08-06T06:58:42;95320.94;;;13.69;100.00
706;BME280;21234;48.690;9.016;2023-08-06T07:01:09;95319.88;;;13.65;100.00
706;BME280;21234;48.690;9.016;2023-08-06T07:03:38;95318.78;;;13.66;100.00
706;BME280;21234;48.690;9.016;2023-08-06T07:06:06;95316.94;;;13.61;100.00
706;BME280;21234;48.690;9.016;2023-08-06T07:08:33;95314.41;;;13.65;100.00
706;BME280;21234;48.690;9.016;2023-08-06T07:11:01;95316.66;;;13.63;100.00
706;BME280;21234;48.690;9.016;2023-08-06T07:13:28;95314.50;;;13.60;100.00
706;BME280;21234;48.690;9.016;2023-08-06T07:15:54;95322.63;;;13.65;100.00
706;BME280;21234;48.690;9.016;2023-08-06T07:18:21;95315.56;;;13.64;100.00
706;BME280;21234;48.690;9.016;2023-08-06T07:20:49;95322.06;;;13.44;100.00
706;BME280;21234;48.690;9.016;2023-08-06T07:23:17;95325.31;;;13.46;100.00
706;BME280;21234;48.690;9.016;2023-08-06T07:25:43;95330.78;;;13.46;100.00
706;BME280;21234;48.690;9.016;2023-08-06T07:28:10;95334.31;;;13.47;100.00
706;BME280;21234;48.690;9.016;2023-08-06T07:30:38;95334.66;;;13.40;100.00
706;BME280;21234;48.690;9.016;2023-08-06T07:33:05;95342.22;;;13.48;100.00
706;BME280;21234;48.690;9.016;2023-08-06T07:35:32;95341.69;;;13.46;100.00
706;BME280;21234;48.690;9.016;2023-08-06T07:38:00;95344.91;;;13.29;100.00
706;BME280;21234;48.690;9.016;2023-08-06T07:40:27;95338.34;;;13.30;100.00
706;BME280;21234;48.690;9.016;2023-08-06T07:42:53;95342.47;;;13.28;100.00
706;BME280;21234;48.690;9.016;2023-08-06T07:45:20;95348.34;;;13.35;100.00
706;BME280;21234;48.690;9.016;2023-08-06T07:47:47;95349.47;;;13.34;100.00
706;BME280;21234;48.690;9.016;2023-08-06T07:50:13;95344.75;;;13.39;100.00
706;BME280;21234;48.690;9.016;2023-08-06T07:52:41;95342.56;;;13.41;100.00
706;BME280;21234;48.690;9.016;2023-08-06T07:55:09;95333.16;;;13.53;100.00
706;BME280;21234;48.690;9.016;2023-08-06T07:57:36;95333.16;;;13.53;100.00
706;BME280;21234;48.690;9.016;2023-08-06T08:00:04;95337.44;;;13.83;100.00
706;BME280;21234;48.690;9.016;2023-08-06T08:02:31;95334.03;;;13.91;100.00
706;BME280;21234;48.690;9.016;2023-08-06T08:04:58;95338.47;;;14.05;100.00
706;BME280;21234;48.690;9.016;2023-08-06T08:07:24;95332.06;;;14.15;100.00
706;BME280;21234;48.690;9.016;2023-08-06T08:09:53;95336.13;;;14.18;100.00
706;BME280;21234;48.690;9.016;2023-08-06T08:12:22;95338.03;;;14.17;100.00
706;BME280;21234;48.690;9.016;2023-08-06T08:14:48;95335.69;;;14.10;100.00
706;BME280;21234;48.690;9.016;2023-08-06T08:17:15;95336.84;;;14.04;100.00
706;BME280;21234;48.690;9.016;2023-08-06T08:19:42;95341.50;;;14.04;100.00
706;BME280;21234;48.690;9.016;2023-08-06T08:22:09;95331.91;;;14.06;100.00
706;BME280;21234;48.690;9.016;2023-08-06T08:24:35;95344.81;;;14.01;100.00
706;BME280;21234;48.690;9.016;2023-08-06T08:27:02;95332.34;;;13.95;100.00
706;BME280;21234;48.690;9.016;2023-08-06T08:29:30;95336.91;;;13.81;100.00
706;BME280;21234;48.690;9.016;2023-08-06T08:31:56;95334.28;;;13.70;100.00
706;BME280;21234;48.690;9.016;2023-08-06T08:34:23;95334.53;;;13.74;100.00
706;BME280;21234;48.690;9.016;2023-08-06T08:36:50;95336.31;;;13.84;100.00
706;BME280;21234;48.690;9.016;2023-08-06T08:39:17;95333.47;;;13.94;100.00
706;BME280;21234;48.690;9.016;2023-08-06T08:41:44;95337.38;;;14.06;100.00
706;BME280;21234;48.690;9.016;2023-08-06T08:44:10;95329.91;;;14.12;100.00
706;BME280;21234;48.690;9.016;2023-08-06T08:46:41;95335.75;;;14.05;100.00
706;BME280;21234;48.690;9.016;2023-08-06T08:49:10;95331.31;;;14.09;100.00
706;BME280;21234;48.690;9.016;2023-08-06T08:51:37;95334.94;;;14.05;100.00
706;BME280;21234;48.690;9.016;2023-08-06T08:54:04;95339.22;;;14.11;100.00
706;BME280;21234;48.690;9.016;2023-08-06T08:56:31;95338.88;;;14.18;100.00
706;BME280;21234;48.690;9.016;2023-08-06T08:58:58;95344.84;;;14.20;100.00
706;BME280;21234;48.690;9.016;2023-08-06T09:01:25;95341.22;;;14.24;100.00
706;BME280;21234;48.690;9.016;2023-08-06T09:03:53;95345.38;;;14.22;100.00
706;BME280;21234;48.690;9.016;2023-08-06T09:06:21;95336.41;;;14.35;100.00
706;BME280;21234;48.690;9.016;2023-08-06T09:08:52;95341.00;;;14.39;100.00
706;BME280;21234;48.690;9.016;2023-08-06T09:11:23;95335.97;;;14.65;100.00
706;BME280;21234;48.690;9.016;2023-08-06T09:13:50;95339.50;;;14.66;100.00
706;BME280;21234;48.690;9.016;2023-08-06T09:16:16;95347.56;;;14.76;100.00
706;BME280;21234;48.690;9.016;2023-08-06T09:18:43;95344.97;;;14.98;100.00
706;BME280;21234;48.690;9.016;2023-08-06T09:21:14;95346.22;;;15.06;100.00
706;BME280;21234;48.690;9.016;2023-08-06T09:23:41;95346.34;;;15.15;100.00
706;BME280;21234;48.690;9.016;2023-08-06T09:26:11;95349.13;;;14.96;100.00
706;BME280;21234;48.690;9.016;2023-08-06T09:28:39;95345.41;;;14.73;100.00
706;BME280;21234;48.690;9.016;2023-08-06T09:31:08;95346.91;;;14.65;100.00
706;BME280;21234;48.690;9.016;2023-08-06T09:33:36;95355.03;;;14.70;100.00
706;BME280;21234;48.690;9.016;2023-08-06T09:36:10;95362.50;;;14.65;100.00
706;BME280;21234;48.690;9.016;2023-08-06T09:38:41;95359.72;;;14.51;100.00
706;BME280;21234;48.690;9.016;2023-08-06T09:41:08;95358.09;;;14.50;100.00
706;BME280;21234;48.690;9.016;2023-08-06T09:43:41;95373.09;;;14.53;100.00
706;BME280;21234;48.690;9.016;2023-08-06T09:46:12;95366.97;;;14.61;100.00
706;BME280;21234;48.690;9.016;2023-08-06T09:48:41;95361.41;;;14.47;100.00
706;BME280;21234;48.690;9.016;2023-08-06T09:51:10;95363.56;;;14.50;100.00
706;BME280;21234;48.690;9.016;2023-08-06T09:53:42;95364.66;;;14.49;100.00
706;BME280;21234;48.690;9.016;2023-08-06T09:56:15;95364.50;;;14.40;100.00
706;BME280;21234;48.690;9.016;2023-08-06T09:58:44;95359.25;;;14.25;100.00
706;BME280;21234;48.690;9.016;2023-08-06T10:01:13;95364.72;;;14.25;100.00
706;BME280;21234;48.690;9.016;2023-08-06T10:03:42;95371.50;;;14.09;100.00
706;BME280;21234;48.690;9.016;2023-08-06T10:06:10;95371.19;;;14.10;100.00
706;BME280;21234;48.690;9.016;2023-08-06T10:08:37;95370.22;;;14.01;100.00
706;BME280;21234;48.690;9.016;2023-08-06T10:11:07;95379.81;;;13.99;100.00
706;BME280;21234;48.690;9.016;2023-08-06T10:13:36;95374.34;;;13.99;100.00
706;BME280;21234;48.690;9.016;2023-08-06T10:16:04;95380.88;;;14.03;100.00
706;BME280;21234;48.690;9.016;2023-08-06T10:18:31;95384.94;;;14.05;100.00
706;BME280;21234;48.690;9.016;2023-08-06T10:20:59;95375.56;;;14.11;100.00
706;BME280;21234;48.690;9.016;2023-08-06T10:23:33;95383.00;;;14.06;100.00
706;BME280;21234;48.690;9.016;2023-08-06T10:26:01;95390.28;;;14.16;100.00
706;BME280;21234;48.690;9.016;2023-08-06T10:28:36;95399.00;;;14.18;100.00
706;BME280;21234;48.690;9.016;2023-08-06T10:31:03;95402.84;;;14.17;100.00
706;BME280;21234;48.690;9.016;2023-08-06T10:33:40;95404.41;;;14.23;100.00
706;BME280;21234;48.690;9.016;2023-08-06T10:36:08;95405.97;;;14.05;100.00
706;BME280;21234;48.690;9.016;2023-08-06T10:38:44;95410.41;;;14.01;100.00
706;BME280;21234;48.690;9.016;2023-08-06T10:41:15;95403.69;;;13.93;100.00
706;BME280;21234;48.690;9.016;2023-08-06T10:43:47;95408.09;;;13.89;100.00
706;BME280;21234;48.690;9.016;2023-08-06T10:46:22;95416.88;;;13.86;100.00
706;BME280;21234;48.690;9.016;2023-08-06T10:48:49;95413.28;;;13.91;100.00
706;BME280;21234;48.690;9.016;2023-08-06T10:51:17;95419.19;;;13.98;100.00
706;BME280;21234;48.690;9.016;2023-08-06T10:53:46;95418.69;;;13.96;100.00
706;BME280;21234;48.690;9.016;2023-08-06T10:56:13;95417.34;;;13.93;100.00
706;BME280;21234;48.690;9.016;2023-08-06T10:58:40;95419.78;;;13.95;100.00
706;BME280;21234;48.690;9.016;2023-08-06T11:01:09;95416.31;;;13.89;100.00
706;BME280;21234;48.690;9.016;2023-08-06T11:03:36;95419.56;;;13.91;100.00
706;BME280;21234;48.690;9.016;2023-08-06T11:06:03;95428.97;;;13.80;100.00
706;BME280;21234;48.690;9.016;2023-08-06T11:08:35;95442.22;;;13.92;100.00
706;BME280;21234;48.690;9.016;2023-08-06T11:11:14;95433.91;;;13.78;100.00
706;BME280;21234;48.690;9.016;2023-08-06T11:13:45;95436.59;;;13.59;100.00
706;BME280;21234;48.690;9.016;2023-08-06T11:16:15;95439.94;;;13.51;100.00
706;BME280;21234;48.690;9.016;2023-08-06T11:18:43;95440.78;;;13.47;100.00
706;BME280;21234;48.690;9.016;2023-08-06T11:21:10;95446.53;;;13.45;100.00
706;BME280;21234;48.690;9.016;2023-08-06T11:23:38;95456.31;;;13.51;100.00
706;BME280;21234;48.690;9.016;2023-08-06T11:26:07;95463.16;;;13.49;100.00
706;BME280;21234;48.690;9.016;2023-08-06T11:28:34;95453.00;;;13.54;100.00
706;BME280;21234;48.690;9.016;2023-08-06T11:31:00;95461.50;;;13.53;100.00
706;BME280;21234;48.690;9.016;2023-08-06T11:33:30;95459.25;;;13.60;100.00
706;BME280;21234;48.690;9.016;2023-08-06T11:35:58;95449.72;;;13.57;100.00
706;BME280;21234;48.690;9.016;2023-08-06T11:38:27;95457.69;;;13.49;100.00
706;BME280;21234;48.690;9.016;2023-08-06T11:40:54;95463.81;;;13.35;100.00
706;BME280;21234;48.690;9.016;2023-08-06T11:43:21;95469.84;;;13.32;100.00
706;BME280;21234;48.690;9.016;2023-08-06T11:45:48;95466.63;;;13.30;100.00
706;BME280;21234;48.690;9.016;2023-08-06T11:48:16;95480.44;;;13.39;100.00
706;BME280;21234;48.690;9.016;2023-08-06T11:50:45;95481.81;;;13.36;100.00
706;BME280;21234;48.690;9.016;2023-08-06T11:53:13;95482.56;;;13.47;100.00
706;BME280;21234;48.690;9.016;2023-08-06T11:55:40;95478.56;;;13.34;100.00
706;BME280;21234;48.690;9.016;2023-08-06T11:58:09;95478.97;;;13.52;100.00
706;BME280;21234;48.690;9.016;2023-08-06T12:00:36;95484.06;;;13.63;100.00
706;BME280;21234;48.690;9.016;2023-08-06T12:03:04;95491.47;;;13.58;100.00
706;BME280;21234;48.690;9.016;2023-08-06T12:05:32;95498.81;;;13.62;100.00
706;BME280;21234;48.690;9.016;2023-08-06T12:08:01;95501.63;;;13.52;100.00
706;BME280;21234;48.690;9.016;2023-08-06T12:10:31;95506.53;;;13.55;100.00
706;BME280;21234;48.690;9.016;2023-08-06T12:12:58;95511.31;;;13.34;100.00
706;BME280;21234;48.690;9.016;2023-08-06T12:15:25;95516.19;;;13.42;100.00
706;BME280;21234;48.690;9.016;2023-08-06T12:17:51;95517.38;;;13.31;100.00
706;BME280;21234;48.690;9.016;2023-08-06T12:20:18;95516.94;;;13.19;100.00
706;BME280;21234;48.690;9.016;2023-08-06T12:22:45;95518.00;;;13.23;100.00
706;BME280;21234;48.690;9.016;2023-08-06T12:25:13;95521.22;;;13.30;100.00
706;BME280;21234;48.690;9.016;2023-08-06T12:27:41;95516.84;;;13.29;100.00
706;BME280;21234;48.690;9.016;2023-08-06T12:30:08;95523.69;;;13.27;100.00
706;BME280;21234;48.690;9.016;2023-08-06T12:32:36;95516.84;;;13.29;100.00
706;BME280;21234;48.690;9.016;2023-08-06T12:35:03;95517.28;;;13.41;100.00
706;BME280;21234;48.690;9.016;2023-08-06T12:37:30;95534.75;;;13.40;100.00
706;BME280;21234;48.690;9.016;2023-08-06T12:39:57;95526.06;;;13.33;100.00
706;BME280;21234;48.690;9.016;2023-08-06T12:42:25;95524.97;;;13.34;100.00
706;BME280;21234;48.690;9.016;2023-08-06T12:44:52;95515.38;;;13.42;100.00
706;BME280;21234;48.690;9.016;2023-08-06T12:47:19;95517.56;;;13.40;100.00
706;BME280;21234;48.690;9.016;2023-08-06T12:49:46;95522.69;;;13.47;100.00
706;BME280;21234;48.690;9.016;2023-08-06T12:52:13;95537.50;;;13.40;98.87
706;BME280;21234;48.690;9.016;2023-08-06T12:54:42;95532.63;;;13.66;100.00
706;BME280;21234;48.690;9.016;2023-08-06T12:57:11;95530.13;;;13.70;96.82
706;BME280;21234;48.690;9.016;2023-08-06T12:59:40;95533.44;;;13.67;94.13
706;BME280;21234;48.690;9.016;2023-08-06T13:02:07;95543.38;;;13.87;96.74
706;BME280;21234;48.690;9.016;2023-08-06T13:04:34;95545.38;;;13.76;95.51
706;BME280;21234;48.690;9.016;2023-08-06T13:07:00;95548.53;;;13.88;95.47
706;BME280;21234;48.690;9.016;2023-08-06T13:09:27;95552.34;;;13.92;94.43
706;BME280;21234;48.690;9.016;2023-08-06T13:11:55;95543.56;;;13.95;92.56
706;BME280;21234;48.690;9.016;2023-08-06T13:14:21;95550.00;;;14.04;92.84
706;BME280;21234;48.690;9.016;2023-08-06T13:16:49;95556.75;;;13.88;91.16